Time;durP1;ratioP1;P1;durP2;ratioP2;P2;SDS_P1;SDS_P2;PMS_P1;PMS_P2;Temp;Humidity;BMP_temperature;BMP_pressure;BME280_temperature;BME280_humidity;BME280_pressure;Samples;Min_cycle;Max_cycle;Signal;HPM_P1;HPM_P2
2023/08/28 00:00:58;;;;;;;;;3.00;3.00;;;;;13.75;71.42;99448.41;5094236;28;8855;-58
2023/08/28 00:03:26;;;;;;;;;10.00;7.00;;;;;13.75;71.33;99451.06;5094830;28;8826;-59
2023/08/28 00:05:54;;;;;;;;;7.00;7.00;;;;;13.76;71.46;99449.25;5094915;28;8857;-57
2023/08/28 00:08:21;;;;;;;;;8.50;8.00;;;;;13.76;71.78;99444.75;5094282;28;8826;-57
2023/08/28 00:10:49;;;;;;;;;6.25;5.00;;;;;13.78;71.49;99448.09;5094422;28;8891;-59
2023/08/28 00:13:16;;;;;;;;;6.50;6.50;;;;;13.79;71.64;99454.28;5094546;28;8821;-57
2023/08/28 00:15:44;;;;;;;;;7.00;6.50;;;;;13.79;71.61;99449.78;5093414;28;8853;-58
2023/08/28 00:18:12;;;;;;;;;4.50;4.50;;;;;13.80;71.81;99453.28;5093503;28;9531;-59
2023/08/28 00:20:41;;;;;;;;;5.75;5.75;;;;;13.78;71.77;99447.25;5093350;28;8824;-58
2023/08/28 00:23:09;;;;;;;;;6.00;5.50;;;;;13.76;72.21;99451.94;5093196;28;8833;-59
2023/08/28 00:25:37;;;;;;;;;6.50;6.00;;;;;13.74;71.77;99443.22;5094455;28;8814;-59
2023/08/28 00:28:04;;;;;;;;;6.75;6.75;;;;;13.74;71.96;99443.22;5093560;28;8826;-58
2023/08/28 00:30:32;;;;;;;;;3.00;3.00;;;;;13.72;71.81;99434.47;5093973;28;8930;-57
2023/08/28 00:33:01;;;;;;;;;5.50;4.00;;;;;13.72;71.77;99432.66;5095036;28;9483;-57
2023/08/28 00:35:29;;;;;;;;;6.00;6.00;;;;;13.71;71.42;99430.97;5093548;28;9475;-58
2023/08/28 00:37:56;;;;;;;;;5.00;4.50;;;;;13.71;71.91;99430.97;5093937;28;8819;-58
2023/08/28 00:40:24;;;;;;;;;5.00;5.00;;;;;13.68;71.75;99430.44;5093538;28;8828;-59
2023/08/28 00:42:52;;;;;;;;;4.00;4.00;;;;;13.67;72.26;99423.41;5094405;28;8828;-59
2023/08/28 00:45:20;;;;;;;;;5.00;5.00;;;;;13.62;71.97;99423.03;5095407;28;9507;-59
2023/08/28 00:47:47;;;;;;;;;4.00;3.50;;;;;13.60;72.34;99428.53;5097438;28;8862;-59
2023/08/28 00:50:15;;;;;;;;;5.00;4.25;;;;;13.58;72.15;99437.72;5097378;28;8814;-56
2023/08/28 00:52:43;;;;;;;;;6.00;5.50;;;;;13.54;72.01;99439.00;5097687;28;8814;-56
2023/08/28 00:55:10;;;;;;;;;5.00;4.00;;;;;13.52;71.72;99441.81;5076565;28;8822;-58
2023/08/28 00:57:39;;;;;;;;;0.25;0.25;;;;;13.50;72.12;99448.31;5077654;28;8822;-60
2023/08/28 01:00:07;;;;;;;;;6.75;6.25;;;;;13.47;72.15;99443.28;5078743;28;8826;-57
2023/08/28 01:02:35;;;;;;;;;5.50;4.50;;;;;13.44;72.42;99448.94;5078410;28;8846;-56
2023/08/28 01:05:04;;;;;;;;;7.00;6.50;;;;;13.41;72.65;99454.59;5096770;28;8846;-59
2023/08/28 01:07:32;;;;;;;;;6.00;5.50;;;;;13.36;72.52;99444.34;5098241;28;9615;-56
2023/08/28 01:09:59;;;;;;;;;8.00;8.00;;;;;13.33;72.64;99449.16;5084759;28;8825;-58
2023/08/28 01:12:27;;;;;;;;;9.00;8.00;;;;;13.28;72.23;99449.63;5078079;28;8868;-57
2023/08/28 01:14:54;;;;;;;;;8.50;8.50;;;;;13.25;73.07;99454.41;5078119;28;8822;-58
2023/08/28 01:17:23;;;;;;;;;4.50;3.75;;;;;13.24;72.38;99450.06;5078678;28;8865;-55
2023/08/28 01:19:51;;;;;;;;;9.50;9.00;;;;;13.25;72.53;99454.41;5090622;28;8818;-59
2023/08/28 01:22:19;;;;;;;;;12.50;11.50;;;;;13.25;72.59;99441.91;5096691;28;8829;-59
2023/08/28 01:24:46;;;;;;;;;9.50;9.00;;;;;13.25;72.95;99438.38;5089904;28;9531;-58
2023/08/28 01:27:14;;;;;;;;;8.50;7.50;;;;;13.26;72.21;99440.91;5077390;28;8845;-56
2023/08/28 01:29:42;;;;;;;;;8.50;8.50;;;;;13.27;72.67;99434.56;5078092;28;9494;-57
2023/08/28 01:32:10;;;;;;;;;9.00;9.00;;;;;13.27;72.84;99431.03;5080910;28;8856;-57
2023/08/28 01:34:38;;;;;;;;;6.00;5.00;;;;;13.27;72.52;99439.06;5096482;28;8802;-59
2023/08/28 01:37:05;;;;;;;;;4.00;4.00;;;;;13.28;72.29;99430.91;5097021;28;8942;-59
2023/08/28 01:39:33;;;;;;;;;6.75;4.00;;;;;13.32;72.60;99429.63;5096785;28;8821;-57
2023/08/28 01:42:01;;;;;;;;;8.00;7.00;;;;;13.37;72.69;99423.81;5097419;28;8826;-59
2023/08/28 01:44:28;;;;;;;;;5.00;5.00;;;;;13.37;72.75;99419.28;5096887;28;8822;-59
2023/08/28 01:46:56;;;;;;;;;6.75;5.50;;;;;13.38;72.49;99433.50;5097032;28;8838;-59
2023/08/28 01:49:24;;;;;;;;;4.50;4.50;;;;;13.38;72.79;99430.84;5096544;28;8833;-58
2023/08/28 01:51:51;;;;;;;;;4.00;4.00;;;;;13.37;72.76;99434.50;5096640;28;8807;-58
2023/08/28 01:54:19;;;;;;;;;5.50;5.50;;;;;13.35;71.87;99423.13;5096087;28;8818;-58
2023/08/28 01:56:46;;;;;;;;;4.00;4.00;;;;;13.36;71.91;99419.44;5096891;28;8806;-59
2023/08/28 01:59:14;;;;;;;;;5.50;5.50;;;;;13.38;72.15;99420.13;5095976;28;8852;-58
2023/08/28 02:01:41;;;;;;;;;3.00;3.00;;;;;13.39;71.79;99417.31;5096196;28;8892;-57
2023/08/28 02:04:09;;;;;;;;;4.00;3.00;;;;;13.38;72.24;99417.47;5096243;28;9487;-58
2023/08/28 02:06:37;;;;;;;;;6.00;6.00;;;;;13.38;72.50;99406.75;5095900;28;9560;-59
2023/08/28 02:09:04;;;;;;;;;6.00;6.00;;;;;13.39;72.50;99408.44;5096138;28;8837;-59
2023/08/28 02:11:32;;;;;;;;;4.00;3.50;;;;;13.37;72.11;99411.25;5096115;28;8842;-57
2023/08/28 02:14:00;;;;;;;;;5.33;5.33;;;;;13.33;72.03;99415.25;5095711;28;8820;-57
2023/08/28 02:16:27;;;;;;;;;6.00;6.00;;;;;13.32;72.16;99413.56;5076699;28;8874;-59
2023/08/28 02:18:55;;;;;;;;;8.00;6.00;;;;;13.28;72.44;99414.03;5080196;28;8810;-59
2023/08/28 02:21:23;;;;;;;;;4.50;3.50;;;;;13.24;72.67;99418.84;5096839;28;9511;-59
2023/08/28 02:23:51;;;;;;;;;6.00;6.00;;;;;13.18;73.07;99419.44;5097024;28;8818;-56
2023/08/28 02:26:18;;;;;;;;;7.00;7.00;;;;;13.11;72.92;99420.16;5095917;28;8806;-59
2023/08/28 02:28:46;;;;;;;;;10.00;9.50;;;;;13.07;73.23;99426.81;5095241;28;8820;-57
2023/08/28 02:31:13;;;;;;;;;8.00;7.00;;;;;13.07;73.06;99434.84;5095594;28;8811;-57
2023/08/28 02:33:41;;;;;;;;;8.50;8.50;;;;;13.10;73.03;99435.38;5095295;28;8810;-59
2023/08/28 02:36:09;;;;;;;;;7.00;6.00;;;;;13.14;72.81;99431.41;5095742;28;8819;-59
2023/08/28 02:38:36;;;;;;;;;8.50;8.50;;;;;13.19;72.56;99429.13;5095970;28;8812;-57
2023/08/28 02:41:05;;;;;;;;;6.00;5.50;;;;;13.20;72.55;99414.78;5085557;28;8838;-57
2023/08/28 02:43:32;;;;;;;;;6.50;6.50;;;;;13.20;73.03;99424.63;5076950;28;8857;-55
2023/08/28 02:46:00;;;;;;;;;9.00;7.00;;;;;13.16;72.67;99423.25;5077370;28;8877;-57
2023/08/28 02:48:28;;;;;;;;;9.50;8.50;;;;;13.13;72.29;99437.75;5077512;28;8926;-57
2023/08/28 02:50:56;;;;;;;;;11.50;11.50;;;;;13.09;72.65;99444.41;5083534;28;8796;-59
2023/08/28 02:53:23;;;;;;;;;7.00;7.00;;;;;13.06;72.59;99444.69;5095637;28;8893;-59
2023/08/28 02:55:51;;;;;;;;;6.75;6.50;;;;;13.03;72.83;99455.69;5082097;28;8820;-56
2023/08/28 02:58:19;;;;;;;;;7.50;7.50;;;;;13.05;73.46;99463.56;5076751;28;8839;-59
2023/08/28 03:00:46;;;;;;;;;8.50;8.50;;;;;13.07;73.03;99465.06;5076752;28;8827;-56
2023/08/28 03:03:14;;;;;;;;;12.00;11.50;;;;;13.09;72.87;99464.94;5081571;28;8816;-59
2023/08/28 03:05:42;;;;;;;;;5.50;4.50;;;;;13.10;72.84;99472.81;5095185;28;8804;-59
2023/08/28 03:08:09;;;;;;;;;9.50;9.25;;;;;13.10;72.79;99470.16;5093399;28;8807;-58
2023/08/28 03:10:37;;;;;;;;;11.00;10.75;;;;;13.09;72.37;99468.47;5074109;28;10181;-58
2023/08/28 03:13:05;;;;;;;;;10.00;9.25;;;;;13.08;73.13;99469.44;5088871;28;8818;-58
2023/08/28 03:15:33;;;;;;;;;7.00;7.00;;;;;13.09;72.48;99464.94;5095161;28;8838;-57
2023/08/28 03:18:01;;;;;;;;;7.75;6.75;;;;;13.12;72.89;99459.28;5095642;28;8840;-58
2023/08/28 03:20:28;;;;;;;;;5.75;5.50;;;;;13.15;72.84;99464.34;5094797;28;8834;-58
2023/08/28 03:22:56;;;;;;;;;12.00;10.00;;;;;13.15;72.90;99462.50;5094490;28;8826;-59
2023/08/28 03:25:24;;;;;;;;;7.00;7.00;;;;;13.16;73.17;99466.88;5095156;28;8955;-59
2023/08/28 03:27:51;;;;;;;;;10.50;8.50;;;;;13.16;72.98;99460.69;5094054;28;8832;-59
2023/08/28 03:30:19;;;;;;;;;12.50;12.50;;;;;13.16;72.59;99468.69;5094883;28;8826;-59
2023/08/28 03:32:46;;;;;;;;;15.75;12.00;;;;;13.15;72.90;99467.84;5095289;28;9542;-59
2023/08/28 03:35:14;;;;;;;;;11.50;9.50;;;;;13.15;72.99;99465.16;5094648;28;8829;-59
2023/08/28 03:37:43;;;;;;;;;9.50;9.50;;;;;13.14;72.92;99468.00;5094779;28;8813;-58
2023/08/28 03:40:12;;;;;;;;;6.50;6.00;;;;;13.12;72.77;99456.59;5095366;28;8830;-59
2023/08/28 03:42:39;;;;;;;;;6.00;6.00;;;;;13.10;73.34;99447.91;5094246;28;8842;-58
2023/08/28 03:45:07;;;;;;;;;7.00;6.75;;;;;13.06;73.03;99434.00;5093978;28;8864;-59
2023/08/28 03:47:34;;;;;;;;;12.50;9.50;;;;;13.03;72.45;99442.31;5094354;28;8822;-58
2023/08/28 03:50:03;;;;;;;;;7.00;6.00;;;;;13.00;73.42;99441.78;5094453;28;8822;-58
2023/08/28 03:52:31;;;;;;;;;9.00;9.00;;;;;12.95;72.96;99436.03;5094064;28;8826;-59
2023/08/28 03:54:58;;;;;;;;;10.00;9.25;;;;;12.91;73.11;99450.66;5093644;28;8959;-58
2023/08/28 03:57:26;;;;;;;;;8.00;8.00;;;;;12.86;73.38;99459.13;5093578;28;8864;-57
2023/08/28 03:59:54;;;;;;;;;6.50;6.00;;;;;12.83;73.26;99463.94;5093229;28;8852;-59
2023/08/28 04:02:23;;;;;;;;;9.00;8.50;;;;;12.78;73.54;99452.84;5093208;28;8822;-57
2023/08/28 04:04:51;;;;;;;;;8.00;8.00;;;;;12.73;73.36;99445.25;5092609;28;8814;-57
2023/08/28 04:07:32;;;;;;;;;7.00;7.00;;;;;12.71;73.57;99449.06;5093153;28;8844;-59
2023/08/28 04:09:59;;;;;;;;;6.75;6.25;;;;;12.66;74.06;99435.28;5092415;28;8818;-59
2023/08/28 04:12:28;;;;;;;;;7.00;7.00;;;;;12.62;73.81;99436.59;5093864;28;8944;-58
2023/08/28 04:14:57;;;;;;;;;4.50;3.75;;;;;12.61;73.62;99442.94;5093380;28;8821;-57
2023/08/28 04:17:25;;;;;;;;;9.50;9.00;;;;;12.56;73.62;99440.72;5083788;28;8832;-59
2023/08/28 04:19:53;;;;;;;;;11.00;8.50;;;;;12.51;73.92;99436.78;5093672;28;8831;-57
2023/08/28 04:22:21;;;;;;;;;9.50;9.25;;;;;12.46;73.95;99445.22;5097569;28;8834;-57
2023/08/28 04:24:48;;;;;;;;;12.00;10.00;;;;;12.43;74.03;99444.66;5098103;28;8822;-57
2023/08/28 04:27:16;;;;;;;;;6.25;6.25;;;;;12.38;73.77;99447.78;5097615;28;8867;-59
2023/08/28 04:29:43;;;;;;;;;7.75;6.50;;;;;12.35;74.55;99442.75;5098024;28;8806;-57
2023/08/28 04:32:11;;;;;;;;;7.00;6.50;;;;;12.31;74.31;99437.84;5098198;28;8830;-58
2023/08/28 04:34:38;;;;;;;;;3.50;3.50;;;;;12.29;74.06;99442.47;5097839;28;8811;-59
2023/08/28 04:37:06;;;;;;;;;6.75;6.75;;;;;12.27;74.45;99445.31;5097864;28;8836;-58
2023/08/28 04:39:34;;;;;;;;;9.50;8.00;;;;;12.27;74.26;99439.97;5097930;28;8866;-59
2023/08/28 04:42:02;;;;;;;;;7.00;7.00;;;;;12.27;74.36;99439.09;5097825;28;8842;-59
2023/08/28 04:44:30;;;;;;;;;7.50;7.50;;;;;12.28;74.18;99438.13;5097339;28;8823;-59
2023/08/28 04:46:57;;;;;;;;;9.50;8.00;;;;;12.28;74.15;99446.97;5097143;28;8824;-59
2023/08/28 04:49:26;;;;;;;;;8.50;8.50;;;;;12.29;74.41;99442.47;5097022;28;8850;-57
2023/08/28 04:51:57;;;;;;;;;14.50;12.50;;;;;12.31;73.90;99446.69;5096527;28;8823;-59
2023/08/28 04:54:24;;;;;;;;;11.00;10.00;;;;;12.34;74.04;99445.56;5097385;28;8952;-58
2023/08/28 04:56:52;;;;;;;;;3.50;3.50;;;;;12.36;74.01;99438.22;5097660;28;8819;-56
2023/08/28 04:59:20;;;;;;;;;7.00;7.00;;;;;12.38;73.49;99445.13;5097446;28;8816;-58
2023/08/28 05:01:47;;;;;;;;;11.75;10.50;;;;;12.38;73.92;99444.28;5096414;28;8831;-59
2023/08/28 05:04:15;;;;;;;;;9.00;7.00;;;;;12.39;73.87;99437.97;5095698;28;8870;-58
2023/08/28 05:06:43;;;;;;;;;11.00;9.00;;;;;12.40;73.85;99439.63;5095737;28;8834;-58
2023/08/28 05:09:11;;;;;;;;;14.00;11.50;;;;;12.43;73.86;99442.00;5095587;28;8830;-57
2023/08/28 05:11:38;;;;;;;;;9.00;8.50;;;;;12.44;74.27;99441.00;5096124;28;8835;-57
2023/08/28 05:14:06;;;;;;;;;10.00;7.50;;;;;12.45;73.60;99445.38;5095652;28;8836;-58
2023/08/28 05:16:34;;;;;;;;;8.00;8.00;;;;;12.46;74.08;99445.22;5095498;28;8900;-56
2023/08/28 05:19:01;;;;;;;;;10.75;9.00;;;;;12.49;74.20;99454.78;5095970;28;8838;-59
2023/08/28 05:21:29;;;;;;;;;9.25;9.00;;;;;12.50;73.91;99453.78;5096689;28;8834;-57
2023/08/28 05:23:56;;;;;;;;;10.00;10.00;;;;;12.51;73.57;99459.00;5096034;28;8985;-58
2023/08/28 05:26:24;;;;;;;;;13.50;10.50;;;;;12.51;73.63;99460.81;5096469;28;9779;-58
2023/08/28 05:28:51;;;;;;;;;10.50;9.75;;;;;12.51;73.63;99468.81;5094955;28;8833;-58
2023/08/28 05:31:19;;;;;;;;;12.00;10.00;;;;;12.52;73.60;99467.81;5094815;28;8830;-57
2023/08/28 05:33:46;;;;;;;;;9.00;9.00;;;;;12.51;74.15;99472.34;5094056;28;9514;-59
2023/08/28 05:36:14;;;;;;;;;10.50;10.50;;;;;12.55;73.82;99470.22;5095016;28;8825;-58
2023/08/28 05:38:42;;;;;;;;;11.50;9.75;;;;;12.57;73.92;99478.94;5095215;28;8838;-58
2023/08/28 05:41:10;;;;;;;;;12.00;10.00;;;;;12.60;74.11;99484.00;5095324;28;8833;-58
2023/08/28 05:43:38;;;;;;;;;6.50;6.00;;;;;12.65;74.00;99484.38;5095985;28;8892;-56
2023/08/28 05:46:06;;;;;;;;;4.00;3.50;;;;;12.75;73.07;99487.88;5096128;28;8850;-57
2023/08/28 05:48:33;;;;;;;;;10.00;9.25;;;;;12.84;73.18;99492.34;5095420;28;8826;-59
2023/08/28 05:51:01;;;;;;;;;9.75;9.50;;;;;12.94;72.86;99493.13;5095285;28;8852;-57
2023/08/28 05:53:29;;;;;;;;;10.00;9.50;;;;;13.02;72.94;99479.88;5095313;28;8843;-59
2023/08/28 05:55:57;;;;;;;;;12.50;10.00;;;;;13.14;72.46;99490.22;5094765;28;8972;-59
2023/08/28 05:58:24;;;;;;;;;12.50;12.50;;;;;13.26;72.23;99489.03;5093981;28;8876;-57
2023/08/28 06:00:53;;;;;;;;;12.50;10.00;;;;;13.37;72.22;99488.81;5094309;28;8857;-56
2023/08/28 06:03:21;;;;;;;;;9.00;9.00;;;;;13.47;71.50;99494.09;5094332;28;8856;-59
2023/08/28 06:05:49;;;;;;;;;8.00;7.50;;;;;13.56;71.96;99480.69;5094200;28;8834;-59
2023/08/28 06:08:17;;;;;;;;;12.50;11.00;;;;;13.65;71.21;99484.25;5094049;28;8822;-59
2023/08/28 06:10:44;;;;;;;;;10.00;9.00;;;;;13.67;71.55;99488.47;5094070;28;8844;-57
2023/08/28 06:13:13;;;;;;;;;6.50;6.50;;;;;13.68;71.48;99481.28;5093867;28;8864;-57
2023/08/28 06:15:41;;;;;;;;;10.50;9.75;;;;;13.66;71.25;99486.78;5093898;28;8971;-56
2023/08/28 06:18:09;;;;;;;;;9.75;9.50;;;;;13.67;71.73;99475.09;5093428;28;8825;-58
2023/08/28 06:20:36;;;;;;;;;11.00;11.00;;;;;13.71;71.91;99478.28;5094159;28;8838;-59
2023/08/28 06:23:04;;;;;;;;;10.25;9.50;;;;;13.76;71.81;99484.03;5093603;28;8826;-59
2023/08/28 06:25:32;;;;;;;;;13.00;11.50;;;;;13.88;71.55;99488.19;5092518;28;8854;-59
2023/08/28 06:28:00;;;;;;;;;12.50;10.00;;;;;14.00;71.13;99485.09;5093138;28;8818;-59
2023/08/28 06:30:28;;;;;;;;;10.50;9.75;;;;;14.13;70.86;99473.97;5093247;28;8838;-59
2023/08/28 06:32:55;;;;;;;;;10.00;10.00;;;;;14.23;70.36;99472.06;5093371;28;8969;-58
2023/08/28 06:35:24;;;;;;;;;14.75;13.25;;;;;14.34;70.91;99471.84;5093446;28;8837;-59
2023/08/28 06:37:51;;;;;;;;;10.00;10.00;;;;;14.43;70.13;99466.34;5093355;28;8836;-59
2023/08/28 06:40:20;;;;;;;;;11.25;10.75;;;;;14.54;70.10;99462.56;5094187;28;8838;-59
2023/08/28 06:42:48;;;;;;;;;9.75;9.75;;;;;14.66;69.68;99466.66;5094263;28;8850;-59
2023/08/28 06:45:16;;;;;;;;;10.50;9.25;;;;;14.79;69.52;99461.72;5093780;28;8830;-59
2023/08/28 06:47:43;;;;;;;;;12.50;12.00;;;;;14.91;69.20;99455.06;5094596;28;8841;-57
2023/08/28 06:50:11;;;;;;;;;11.50;11.50;;;;;15.02;69.24;99442.19;5094510;28;8822;-58
2023/08/28 06:52:39;;;;;;;;;9.75;9.75;;;;;15.14;69.14;99442.72;5094539;28;8928;-59
2023/08/28 06:55:07;;;;;;;;;6.00;6.00;;;;;15.24;69.04;99446.97;5094222;28;8859;-59
2023/08/28 06:57:35;;;;;;;;;9.50;9.50;;;;;15.37;69.03;99443.84;5094020;28;8897;-56
2023/08/28 07:00:03;;;;;;;;;6.50;6.50;;;;;15.51;68.31;99441.38;5094337;28;8838;-58
2023/08/28 07:02:31;;;;;;;;;13.50;12.50;;;;;15.65;68.68;99450.59;5093258;28;9558;-59
2023/08/28 07:05:00;;;;;;;;;9.75;9.00;;;;;15.75;68.10;99445.91;5092730;28;8853;-58
2023/08/28 07:07:27;;;;;;;;;16.00;15.00;;;;;15.87;67.90;99441.91;5091955;28;8964;-58
2023/08/28 07:09:56;;;;;;;;;13.75;11.75;;;;;15.98;68.00;99447.78;5092256;28;8817;-59
2023/08/28 07:12:24;;;;;;;;;12.25;10.50;;;;;16.08;67.45;99447.59;5091884;28;8838;-59
2023/08/28 07:14:53;;;;;;;;;14.25;13.50;;;;;16.14;67.61;99453.13;5092104;28;8932;-58
2023/08/28 07:17:21;;;;;;;;;14.50;13.00;;;;;16.19;67.35;99448.91;5092628;28;9000;-59
2023/08/28 07:19:49;;;;;;;;;10.40;10.00;;;;;16.24;67.43;99438.50;5092484;28;8834;-59
2023/08/28 07:22:17;;;;;;;;;12.60;12.00;;;;;16.28;67.74;99450.63;5092956;28;8826;-59
2023/08/28 07:24:45;;;;;;;;;9.00;7.50;;;;;16.33;67.81;99453.59;5092706;28;8976;-59
2023/08/28 07:27:13;;;;;;;;;12.40;12.40;;;;;16.43;67.42;99448.94;5093302;28;8845;-59
2023/08/28 07:29:40;;;;;;;;;10.50;9.75;;;;;16.49;67.57;99458.16;5093355;28;8834;-59
2023/08/28 07:32:08;;;;;;;;;13.40;12.60;;;;;16.52;67.38;99458.66;5092692;28;8830;-59
2023/08/28 07:34:36;;;;;;;;;12.60;12.20;;;;;16.54;67.16;99464.69;5093141;28;8964;-57
2023/08/28 07:37:04;;;;;;;;;15.80;15.20;;;;;16.56;67.30;99465.34;5092867;28;8960;-59
2023/08/28 07:39:31;;;;;;;;;17.50;14.50;;;;;16.56;67.15;99459.97;5092908;28;9561;-59
2023/08/28 07:41:59;;;;;;;;;17.00;15.40;;;;;16.57;67.37;99461.66;5092720;28;8833;-58
2023/08/28 07:44:27;;;;;;;;;15.40;13.80;;;;;16.61;67.59;99460.31;5092939;28;8849;-59
2023/08/28 07:46:55;;;;;;;;;13.00;12.20;;;;;16.67;67.39;99450.72;5092609;28;8856;-59
2023/08/28 07:49:23;;;;;;;;;9.20;8.20;;;;;16.73;67.52;99448.19;5093019;28;8829;-58
2023/08/28 07:51:51;;;;;;;;;19.25;16.00;;;;;16.83;66.61;99451.50;5092942;28;8853;-59
2023/08/28 07:54:18;;;;;;;;;15.00;14.60;;;;;16.92;67.27;99441.53;5092903;28;8829;-59
2023/08/28 07:56:46;;;;;;;;;11.20;11.20;;;;;17.01;67.13;99448.59;5094421;28;8821;-59
2023/08/28 07:59:15;;;;;;;;;14.00;11.80;;;;;17.06;66.71;99452.44;5096261;28;8953;-58
2023/08/28 08:01:43;;;;;;;;;16.40;16.00;;;;;17.11;66.24;99455.44;5095292;28;8834;-57
2023/08/28 08:04:11;;;;;;;;;11.20;11.20;;;;;17.18;66.47;99451.03;5094891;28;9557;-59
2023/08/28 08:06:39;;;;;;;;;12.40;11.60;;;;;17.29;66.46;99453.31;5095380;28;9617;-58
2023/08/28 08:09:06;;;;;;;;;16.00;14.40;;;;;17.38;66.15;99463.06;5095149;28;8837;-56
2023/08/28 08:11:34;;;;;;;;;11.00;10.00;;;;;17.49;65.68;99465.38;5095171;28;8830;-59
2023/08/28 08:14:03;;;;;;;;;11.20;9.80;;;;;17.59;65.77;99475.88;5096017;28;8838;-59
2023/08/28 08:16:31;;;;;;;;;10.00;9.40;;;;;17.62;66.02;99470.97;5096410;28;8853;-58
2023/08/28 08:18:59;;;;;;;;;14.60;11.60;;;;;17.67;66.06;99468.59;5096528;28;8818;-59
2023/08/28 08:21:26;;;;;;;;;11.60;8.80;;;;;17.71;66.24;99463.69;5096270;28;8973;-56
2023/08/28 08:23:55;;;;;;;;;11.60;10.00;;;;;17.74;65.90;99472.25;5096157;28;8838;-57
2023/08/28 08:26:23;;;;;;;;;11.60;10.00;;;;;17.80;65.54;99468.00;5095629;28;8960;-59
2023/08/28 08:28:51;;;;;;;;;12.40;12.40;;;;;17.92;66.03;99478.19;5095077;28;9779;-59
2023/08/28 08:31:19;;;;;;;;;9.00;7.80;;;;;18.07;65.43;99479.06;5094689;28;8854;-56
2023/08/28 08:33:47;;;;;;;;;10.00;9.60;;;;;18.23;65.14;99484.31;5095609;28;8842;-59
2023/08/28 08:36:14;;;;;;;;;9.80;8.80;;;;;18.43;64.99;99482.03;5094987;28;8953;-59
2023/08/28 08:38:42;;;;;;;;;11.60;11.60;;;;;18.54;64.84;99470.78;5094823;28;8826;-58
2023/08/28 08:41:10;;;;;;;;;13.40;12.60;;;;;18.62;64.38;99466.16;5094526;28;8822;-58
2023/08/28 08:43:38;;;;;;;;;7.80;7.80;;;;;18.71;64.46;99459.63;5094836;28;8850;-59
2023/08/28 08:46:06;;;;;;;;;9.60;9.20;;;;;18.84;64.43;99469.78;5094701;28;8866;-59
2023/08/28 08:48:36;;;;;;;;;6.40;6.00;;;;;18.92;64.38;99480.47;5094826;28;8841;-58
2023/08/28 08:51:05;;;;;;;;;7.80;7.00;;;;;18.93;64.27;99477.59;5094977;28;8822;-58
2023/08/28 08:53:33;;;;;;;;;10.40;9.40;;;;;18.90;63.97;99475.25;5095580;28;8834;-57
2023/08/28 08:56:01;;;;;;;;;7.20;5.20;;;;;18.89;64.18;99473.59;5095752;28;8814;-59
2023/08/28 08:58:30;;;;;;;;;9.20;6.60;;;;;18.99;64.66;99474.16;5095288;28;8830;-59
2023/08/28 09:00:58;;;;;;;;;6.40;6.00;;;;;19.15;63.96;99483.91;5095102;28;8814;-57
2023/08/28 09:03:25;;;;;;;;;3.20;3.20;;;;;19.23;63.92;99473.88;5094417;28;8848;-60
2023/08/28 09:05:54;;;;;;;;;7.00;6.00;;;;;19.28;63.54;99478.72;5094675;28;8980;-58
2023/08/28 09:08:23;;;;;;;;;6.80;6.40;;;;;19.31;63.59;99465.69;5092677;28;8972;-59
2023/08/28 09:10:51;;;;;;;;;4.60;4.00;;;;;19.34;63.87;99465.28;5094500;28;8968;-58
2023/08/28 09:13:19;;;;;;;;;5.80;5.40;;;;;19.30;64.12;99472.09;5094291;28;8872;-57
2023/08/28 09:15:47;;;;;;;;;4.00;4.00;;;;;19.26;64.16;99464.56;5094837;28;8838;-59
2023/08/28 09:18:15;;;;;;;;;1.00;1.00;;;;;19.33;64.05;99468.16;5094298;28;9632;-59
2023/08/28 09:20:43;;;;;;;;;4.00;4.00;;;;;19.53;63.60;99470.09;5093621;28;8872;-58
2023/08/28 09:23:11;;;;;;;;;8.20;7.00;;;;;19.72;62.94;99464.06;5093503;28;8968;-61
2023/08/28 09:25:39;;;;;;;;;3.00;3.00;;;;;19.89;62.65;99462.78;5093554;28;8849;-57
2023/08/28 09:28:07;;;;;;;;;1.80;1.80;;;;;19.95;62.40;99463.91;5094297;28;8842;-59
2023/08/28 09:30:36;;;;;;;;;2.20;2.20;;;;;19.98;62.77;99458.09;5093845;28;9515;-57
2023/08/28 09:33:05;;;;;;;;;1.20;1.00;;;;;20.03;62.96;99455.66;5093302;28;8866;-56
2023/08/28 09:35:33;;;;;;;;;4.00;2.20;;;;;20.13;62.04;99450.78;5093711;28;8880;-56
2023/08/28 09:38:01;;;;;;;;;2.00;1.00;;;;;20.24;61.84;99450.28;5093782;28;8834;-58
2023/08/28 09:40:29;;;;;;;;;4.60;4.20;;;;;20.30;62.38;99444.91;5094619;28;8842;-59
2023/08/28 09:42:57;;;;;;;;;4.20;2.80;;;;;20.29;62.33;99443.25;5094365;28;8813;-57
2023/08/28 09:45:25;;;;;;;;;2.00;2.00;;;;;20.23;62.38;99441.31;5094002;28;8972;-59
2023/08/28 09:47:53;;;;;;;;;3.20;3.20;;;;;20.22;62.33;99434.22;5093916;28;8845;-57
2023/08/28 09:50:22;;;;;;;;;4.20;4.20;;;;;20.25;62.55;99420.31;5094325;28;8977;-57
2023/08/28 09:52:49;;;;;;;;;4.00;4.00;;;;;20.31;62.27;99416.81;5093974;28;8842;-59
2023/08/28 09:55:18;;;;;;;;;4.00;4.00;;;;;20.45;61.90;99429.41;5094575;28;8834;-57
2023/08/28 09:57:47;;;;;;;;;4.20;4.00;;;;;20.54;61.79;99422.00;5093616;28;8826;-59
2023/08/28 10:00:15;;;;;;;;;4.40;4.00;;;;;20.63;61.59;99432.44;5094049;28;8826;-59
2023/08/28 10:02:42;;;;;;;;;2.80;2.80;;;;;20.69;61.64;99437.06;5094332;28;8882;-58
2023/08/28 10:05:14;;;;;;;;;4.00;4.00;;;;;20.67;61.66;99434.56;5094112;28;8829;-58
2023/08/28 10:07:42;;;;;;;;;5.00;5.00;;;;;20.67;62.04;99425.63;5093754;28;9604;-58
2023/08/28 10:10:11;;;;;;;;;3.00;3.00;;;;;20.66;62.32;99421.25;5093549;28;8818;-58
2023/08/28 10:12:40;;;;;;;;;6.20;6.20;;;;;20.67;61.65;99426.44;5093555;28;8837;-57
2023/08/28 10:15:08;;;;;;;;;4.80;4.20;;;;;20.74;62.08;99426.50;5093751;28;8996;-56
2023/08/28 10:17:36;;;;;;;;;6.60;5.00;;;;;20.81;61.90;99427.38;5093269;28;8869;-59
2023/08/28 10:20:04;;;;;;;;;5.00;5.00;;;;;20.90;61.66;99431.63;5092411;28;8830;-58
2023/08/28 10:22:32;;;;;;;;;5.00;5.00;;;;;21.11;61.16;99426.09;5092389;28;8910;-58
2023/08/28 10:25:00;;;;;;;;;2.00;2.00;;;;;21.35;60.32;99426.38;5092468;28;8980;-56
2023/08/28 10:27:28;;;;;;;;;4.00;4.00;;;;;21.64;60.07;99422.53;5092852;28;8907;-59
2023/08/28 10:29:56;;;;;;;;;4.20;4.20;;;;;21.87;59.44;99420.31;5093027;28;8830;-58
2023/08/28 10:32:23;;;;;;;;;7.20;7.00;;;;;22.02;59.78;99419.06;5093510;28;8837;-59
2023/08/28 10:34:52;;;;;;;;;5.80;5.00;;;;;22.00;59.43;99423.06;5093633;28;8857;-59
2023/08/28 10:37:20;;;;;;;;;4.40;4.00;;;;;21.87;59.79;99423.84;5093760;28;8842;-58
2023/08/28 10:39:57;;;;;;;;;6.20;6.20;;;;;21.87;59.66;99428.44;5093789;28;8837;-59
2023/08/28 10:42:26;;;;;;;;;2.00;2.00;;;;;21.86;60.32;99432.22;5093800;28;8972;-57
2023/08/28 10:44:55;;;;;;;;;7.00;6.20;;;;;21.79;60.32;99429.47;5093129;28;9660;-58
2023/08/28 10:47:25;;;;;;;;;7.00;5.80;;;;;21.85;60.31;99433.25;5093563;28;8850;-57
2023/08/28 10:49:53;;;;;;;;;5.00;5.00;;;;;21.87;60.00;99436.59;5093513;28;8926;-57
2023/08/28 10:52:22;;;;;;;;;7.40;5.00;;;;;21.83;59.89;99436.16;5093481;28;8918;-59
2023/08/28 10:54:50;;;;;;;;;2.00;2.00;;;;;21.83;60.38;99427.19;5093455;28;8849;-59
2023/08/28 10:57:18;;;;;;;;;7.60;7.00;;;;;21.87;60.45;99428.44;5093141;28;8856;-59
2023/08/28 10:59:46;;;;;;;;;5.00;5.00;;;;;22.07;59.55;99421.16;5093758;28;8915;-59
2023/08/28 11:02:14;;;;;;;;;6.80;5.00;;;;;22.05;59.68;99428.66;5092797;28;8850;-57
2023/08/28 11:04:42;;;;;;;;;5.00;5.00;;;;;21.97;59.96;99428.88;5093238;28;8964;-58
2023/08/28 11:07:10;;;;;;;;;1.40;1.40;;;;;21.83;60.18;99432.59;5093540;28;8834;-57
2023/08/28 11:09:36;;;;;;;;;6.40;6.40;;;;;21.67;60.31;99431.13;5093814;28;8830;-60
2023/08/28 11:12:05;;;;;;;;;5.80;5.80;;;;;21.64;60.81;99430.66;5093556;28;8826;-57
2023/08/28 11:14:33;;;;;;;;;6.00;6.00;;;;;21.86;60.06;99437.63;5093612;28;8964;-57
2023/08/28 11:17:18;;;;;;;;;7.80;7.00;;;;;22.07;60.16;99429.28;5093245;28;8927;-59
2023/08/28 11:19:47;;;;;;;;;7.60;6.20;;;;;22.22;59.47;99438.06;5089281;28;8818;-60
2023/08/28 11:22:17;;;;;;;;;8.40;8.00;;;;;22.29;58.91;99439.75;5092739;28;8818;-57
2023/08/28 11:24:45;;;;;;;;;7.20;7.20;;;;;22.43;59.11;99437.88;5092330;28;8845;-59
2023/08/28 11:27:13;;;;;;;;;7.20;7.00;;;;;22.78;58.38;99439.31;5092704;28;8848;-57
2023/08/28 11:29:41;;;;;;;;;8.00;8.00;;;;;23.55;56.98;99435.53;5092970;28;8855;-59
2023/08/28 11:32:08;;;;;;;;;4.80;4.80;;;;;23.96;56.15;99427.75;5090639;28;8819;-59
2023/08/28 11:34:36;;;;;;;;;6.80;5.60;;;;;23.84;56.36;99428.66;5089947;28;8819;-59
2023/08/28 11:37:04;;;;;;;;;8.60;7.60;;;;;23.56;57.41;99434.47;5090516;28;8826;-60
2023/08/28 11:39:32;;;;;;;;;8.20;8.20;;;;;23.17;58.02;99439.22;5091227;28;8912;-58